sensor_id;sensor_type;location;lat;lon;timestamp;temperature;humidity
21255;DHT22;10785;50.674;17.954;2023-04-07T00:01:22;1.70;99.90
21255;DHT22;10785;50.674;17.954;2023-04-07T00:03:51;1.70;99.90
21255;DHT22;10785;50.674;17.954;2023-04-07T00:06:20;1.70;99.90
21255;DHT22;10785;50.674;17.954;2023-04-07T00:08:48;1.70;99.90
21255;DHT22;10785;50.674;17.954;2023-04-07T00:11:17;1.70;99.90
21255;DHT22;10785;50.674;17.954;2023-04-07T00:13:47;1.70;99.90
21255;DHT22;10785;50.674;17.954;2023-04-07T00:16:15;1.80;99.90
21255;DHT22;10785;50.674;17.954;2023-04-07T00:31:49;1.70;99.90
21255;DHT22;10785;50.674;17.954;2023-04-07T00:34:18;1.70;99.90
21255;DHT22;10785;50.674;17.954;2023-04-07T00:36:47;1.70;99.90
21255;DHT22;10785;50.674;17.954;2023-04-07T00:39:18;1.70;99.90
21255;DHT22;10785;50.674;17.954;2023-04-07T00:41:48;1.60;99.90
21255;DHT22;10785;50.674;17.954;2023-04-07T00:44:17;1.70;99.90
21255;DHT22;10785;50.674;17.954;2023-04-07T00:46:46;1.70;99.90
21255;DHT22;10785;50.674;17.954;2023-04-07T00:49:16;1.70;99.90
21255;DHT22;10785;50.674;17.954;2023-04-07T00:51:45;1.70;99.90
21255;DHT22;10785;50.674;17.954;2023-04-07T00:54:14;1.70;99.90
21255;DHT22;10785;50.674;17.954;2023-04-07T00:56:42;1.70;99.90
21255;DHT22;10785;50.674;17.954;2023-04-07T00:59:11;1.70;99.90
21255;DHT22;10785;50.674;17.954;2023-04-07T01:01:44;1.70;99.90
21255;DHT22;10785;50.674;17.954;2023-04-07T01:04:25;1.70;99.90
21255;DHT22;10785;50.674;17.954;2023-04-07T01:06:58;1.80;99.90
21255;DHT22;10785;50.674;17.954;2023-04-07T01:09:40;1.80;99.90
21255;DHT22;10785;50.674;17.954;2023-04-07T01:12:17;1.80;99.90
21255;DHT22;10785;50.674;17.954;2023-04-07T01:14:50;1.70;99.90
21255;DHT22;10785;50.674;17.954;2023-04-07T01:17:34;1.70;99.90
21255;DHT22;10785;50.674;17.954;2023-04-07T01:20:06;1.70;99.90
21255;DHT22;10785;50.674;17.954;2023-04-07T01:22:42;1.70;99.90
21255;DHT22;10785;50.674;17.954;2023-04-07T01:25:34;1.70;99.90
21255;DHT22;10785;50.674;17.954;2023-04-07T01:28:14;1.70;99.90
21255;DHT22;10785;50.674;17.954;2023-04-07T01:30:56;1.70;99.90
21255;DHT22;10785;50.674;17.954;2023-04-07T01:33:28;1.80;99.90
21255;DHT22;10785;50.674;17.954;2023-04-07T01:35:59;1.70;99.90
21255;DHT22;10785;50.674;17.954;2023-04-07T01:38:29;1.70;99.90
21255;DHT22;10785;50.674;17.954;2023-04-07T01:40:58;1.70;99.90
21255;DHT22;10785;50.674;17.954;2023-04-07T01:43:28;1.70;99.90
21255;DHT22;10785;50.674;17.954;2023-04-07T01:45:59;1.70;99.90
21255;DHT22;10785;50.674;17.954;2023-04-07T01:48:29;1.70;99.90
21255;DHT22;10785;50.674;17.954;2023-04-07T01:50:58;1.80;99.90
21255;DHT22;10785;50.674;17.954;2023-04-07T01:53:28;1.80;99.90
21255;DHT22;10785;50.674;17.954;2023-04-07T01:55:57;1.80;99.90
21255;DHT22;10785;50.674;17.954;2023-04-07T01:58:26;1.80;99.90
21255;DHT22;10785;50.674;17.954;2023-04-07T02:00:55;1.80;99.90
21255;DHT22;10785;50.674;17.954;2023-04-07T02:03:28;1.80;99.90
21255;DHT22;10785;50.674;17.954;2023-04-07T02:06:03;1.90;99.90
21255;DHT22;10785;50.674;17.954;2023-04-07T02:08:38;1.90;99.90
21255;DHT22;10785;50.674;17.954;2023-04-07T02:11:10;1.90;99.90
21255;DHT22;10785;50.674;17.954;2023-04-07T02:13:41;1.90;99.90
21255;DHT22;10785;50.674;17.954;2023-04-07T02:16:33;1.90;99.90
21255;DHT22;10785;50.674;17.954;2023-04-07T02:19:04;1.90;99.90
21255;DHT22;10785;50.674;17.954;2023-04-07T02:21:33;2.00;99.90
21255;DHT22;10785;50.674;17.954;2023-04-07T02:24:05;2.00;99.90
21255;DHT22;10785;50.674;17.954;2023-04-07T02:26:34;2.00;99.90
21255;DHT22;10785;50.674;17.954;2023-04-07T02:29:03;2.00;99.90
21255;DHT22;10785;50.674;17.954;2023-04-07T02:31:32;2.00;99.90
21255;DHT22;10785;50.674;17.954;2023-04-07T02:34:00;2.00;99.90
21255;DHT22;10785;50.674;17.954;2023-04-07T02:36:30;2.00;99.90
21255;DHT22;10785;50.674;17.954;2023-04-07T02:38:59;2.00;99.90
21255;DHT22;10785;50.674;17.954;2023-04-07T02:41:27;2.00;99.90
21255;DHT22;10785;50.674;17.954;2023-04-07T02:43:56;2.00;99.90
21255;DHT22;10785;50.674;17.954;2023-04-07T02:46:24;2.00;99.90
21255;DHT22;10785;50.674;17.954;2023-04-07T02:48:53;2.00;99.90
21255;DHT22;10785;50.674;17.954;2023-04-07T02:51:22;2.00;99.90
21255;DHT22;10785;50.674;17.954;2023-04-07T02:53:52;1.90;99.90
21255;DHT22;10785;50.674;17.954;2023-04-07T02:56:20;2.00;99.90
21255;DHT22;10785;50.674;17.954;2023-04-07T02:58:49;2.00;99.90
21255;DHT22;10785;50.674;17.954;2023-04-07T03:01:19;2.00;99.90
21255;DHT22;10785;50.674;17.954;2023-04-07T03:03:47;1.90;99.90
21255;DHT22;10785;50.674;17.954;2023-04-07T03:06:22;1.90;99.90
21255;DHT22;10785;50.674;17.954;2023-04-07T03:09:04;1.90;99.90
21255;DHT22;10785;50.674;17.954;2023-04-07T03:11:33;1.90;99.90
21255;DHT22;10785;50.674;17.954;2023-04-07T03:14:02;1.80;99.90
21255;DHT22;10785;50.674;17.954;2023-04-07T03:22:58;1.80;99.90
21255;DHT22;10785;50.674;17.954;2023-04-07T03:25:30;1.80;99.90
21255;DHT22;10785;50.674;17.954;2023-04-07T03:28:00;1.90;99.90
21255;DHT22;10785;50.674;17.954;2023-04-07T03:30:32;1.80;99.90
21255;DHT22;10785;50.674;17.954;2023-04-07T03:33:01;1.90;99.90
21255;DHT22;10785;50.674;17.954;2023-04-07T03:35:31;1.80;99.90
21255;DHT22;10785;50.674;17.954;2023-04-07T03:37:59;1.90;99.90
21255;DHT22;10785;50.674;17.954;2023-04-07T03:40:30;1.90;99.90
21255;DHT22;10785;50.674;17.954;2023-04-07T03:43:00;1.90;99.90
21255;DHT22;10785;50.674;17.954;2023-04-07T04:01:51;1.90;99.90
21255;DHT22;10785;50.674;17.954;2023-04-07T04:04:20;1.90;99.90
21255;DHT22;10785;50.674;17.954;2023-04-07T04:06:51;1.90;99.90
21255;DHT22;10785;50.674;17.954;2023-04-07T04:09:26;1.90;99.90
21255;DHT22;10785;50.674;17.954;2023-04-07T04:11:55;1.90;99.90
21255;DHT22;10785;50.674;17.954;2023-04-07T04:14:24;1.90;99.90
21255;DHT22;10785;50.674;17.954;2023-04-07T04:17:03;1.80;99.90
21255;DHT22;10785;50.674;17.954;2023-04-07T04:19:46;1.80;99.90
21255;DHT22;10785;50.674;17.954;2023-04-07T04:22:29;1.80;99.90
21255;DHT22;10785;50.674;17.954;2023-04-07T04:24:58;1.70;99.90
21255;DHT22;10785;50.674;17.954;2023-04-07T04:27:29;1.70;99.90
21255;DHT22;10785;50.674;17.954;2023-04-07T04:30:06;1.70;99.90
21255;DHT22;10785;50.674;17.954;2023-04-07T04:32:46;1.70;99.90
21255;DHT22;10785;50.674;17.954;2023-04-07T04:35:19;1.70;99.90
21255;DHT22;10785;50.674;17.954;2023-04-07T04:38:09;1.70;99.90
21255;DHT22;10785;50.674;17.954;2023-04-07T04:40:42;1.70;99.90
21255;DHT22;10785;50.674;17.954;2023-04-07T04:43:12;1.70;99.90
21255;DHT22;10785;50.674;17.954;2023-04-07T04:45:41;1.70;99.90
21255;DHT22;10785;50.674;17.954;2023-04-07T04:48:13;1.70;99.90
21255;DHT22;10785;50.674;17.954;2023-04-07T04:50:43;1.70;99.90
21255;DHT22;10785;50.674;17.954;2023-04-07T04:53:14;1.70;99.90
21255;DHT22;10785;50.674;17.954;2023-04-07T04:55:50;1.70;99.90
21255;DHT22;10785;50.674;17.954;2023-04-07T04:58:46;1.60;99.90
21255;DHT22;10785;50.674;17.954;2023-04-07T05:01:34;1.70;99.90
21255;DHT22;10785;50.674;17.954;2023-04-07T05:04:09;1.60;99.90
21255;DHT22;10785;50.674;17.954;2023-04-07T05:06:44;1.70;99.90
21255;DHT22;10785;50.674;17.954;2023-04-07T05:09:16;1.70;99.90
21255;DHT22;10785;50.674;17.954;2023-04-07T05:11:47;1.70;99.90
21255;DHT22;10785;50.674;17.954;2023-04-07T05:14:16;1.70;99.90
21255;DHT22;10785;50.674;17.954;2023-04-07T05:16:51;1.70;99.90
21255;DHT22;10785;50.674;17.954;2023-04-07T05:19:26;1.70;99.90
21255;DHT22;10785;50.674;17.954;2023-04-07T05:22:01;1.70;99.90
21255;DHT22;10785;50.674;17.954;2023-04-07T05:24:36;1.70;99.90
21255;DHT22;10785;50.674;17.954;2023-04-07T05:27:05;1.70;99.90
21255;DHT22;10785;50.674;17.954;2023-04-07T05:29:34;1.70;99.90
21255;DHT22;10785;50.674;17.954;2023-04-07T05:32:05;1.70;99.90
21255;DHT22;10785;50.674;17.954;2023-04-07T05:34:37;1.70;99.90
21255;DHT22;10785;50.674;17.954;2023-04-07T05:37:06;1.70;99.90
21255;DHT22;10785;50.674;17.954;2023-04-07T05:39:35;1.80;99.90
21255;DHT22;10785;50.674;17.954;2023-04-07T05:42:06;1.80;99.90
21255;DHT22;10785;50.674;17.954;2023-04-07T05:44:37;1.80;99.90
21255;DHT22;10785;50.674;17.954;2023-04-07T05:47:05;1.80;99.90
21255;DHT22;10785;50.674;17.954;2023-04-07T05:49:37;1.80;99.90
21255;DHT22;10785;50.674;17.954;2023-04-07T05:52:12;1.80;99.90
21255;DHT22;10785;50.674;17.954;2023-04-07T05:54:47;1.80;99.90
21255;DHT22;10785;50.674;17.954;2023-04-07T05:57:16;1.80;99.90
21255;DHT22;10785;50.674;17.954;2023-04-07T05:59:47;1.80;99.90
21255;DHT22;10785;50.674;17.954;2023-04-07T06:02:16;1.80;99.90
21255;DHT22;10785;50.674;17.954;2023-04-07T06:04:48;1.80;99.90
21255;DHT22;10785;50.674;17.954;2023-04-07T06:07:19;1.90;99.90
21255;DHT22;10785;50.674;17.954;2023-04-07T06:09:47;1.90;99.90
21255;DHT22;10785;50.674;17.954;2023-04-07T06:12:16;1.90;99.90
21255;DHT22;10785;50.674;17.954;2023-04-07T06:14:50;1.90;99.90
21255;DHT22;10785;50.674;17.954;2023-04-07T06:17:18;1.90;99.90
21255;DHT22;10785;50.674;17.954;2023-04-07T06:19:48;1.90;99.90
21255;DHT22;10785;50.674;17.954;2023-04-07T06:22:17;2.00;99.90
21255;DHT22;10785;50.674;17.954;2023-04-07T06:24:46;2.00;99.90
21255;DHT22;10785;50.674;17.954;2023-04-07T06:27:15;1.90;99.90
21255;DHT22;10785;50.674;17.954;2023-04-07T06:29:47;1.90;99.90
21255;DHT22;10785;50.674;17.954;2023-04-07T06:32:16;1.90;99.90
21255;DHT22;10785;50.674;17.954;2023-04-07T06:34:45;2.00;99.90
21255;DHT22;10785;50.674;17.954;2023-04-07T06:37:15;2.00;99.90
21255;DHT22;10785;50.674;17.954;2023-04-07T06:39:44;2.00;99.90
21255;DHT22;10785;50.674;17.954;2023-04-07T06:42:12;2.00;99.90
21255;DHT22;10785;50.674;17.954;2023-04-07T06:44:49;2.00;99.90
21255;DHT22;10785;50.674;17.954;2023-04-07T06:47:18;2.00;99.90
21255;DHT22;10785;50.674;17.954;2023-04-07T06:49:47;2.00;99.90
21255;DHT22;10785;50.674;17.954;2023-04-07T06:52:17;2.00;99.90
21255;DHT22;10785;50.674;17.954;2023-04-07T06:54:45;2.00;99.90
21255;DHT22;10785;50.674;17.954;2023-04-07T06:57:14;2.00;99.90
21255;DHT22;10785;50.674;17.954;2023-04-07T06:59:43;2.00;99.90
21255;DHT22;10785;50.674;17.954;2023-04-07T07:02:12;2.00;99.90
21255;DHT22;10785;50.674;17.954;2023-04-07T07:04:41;2.00;99.90
21255;DHT22;10785;50.674;17.954;2023-04-07T07:07:10;2.00;99.90
21255;DHT22;10785;50.674;17.954;2023-04-07T07:09:40;2.00;99.90
21255;DHT22;10785;50.674;17.954;2023-04-07T07:12:09;2.00;99.90
21255;DHT22;10785;50.674;17.954;2023-04-07T07:14:38;2.00;99.90
21255;DHT22;10785;50.674;17.954;2023-04-07T07:17:07;2.00;99.90
21255;DHT22;10785;50.674;17.954;2023-04-07T07:19:35;2.00;99.90
21255;DHT22;10785;50.674;17.954;2023-04-07T07:22:05;2.00;99.90
21255;DHT22;10785;50.674;17.954;2023-04-07T07:24:33;2.00;99.90
21255;DHT22;10785;50.674;17.954;2023-04-07T07:27:04;2.00;99.90
21255;DHT22;10785;50.674;17.954;2023-04-07T07:29:32;2.10;99.90
21255;DHT22;10785;50.674;17.954;2023-04-07T07:32:01;2.10;99.90
21255;DHT22;10785;50.674;17.954;2023-04-07T07:34:30;2.10;99.90
21255;DHT22;10785;50.674;17.954;2023-04-07T07:36:59;2.10;99.90
21255;DHT22;10785;50.674;17.954;2023-04-07T07:39:28;2.10;99.90
21255;DHT22;10785;50.674;17.954;2023-04-07T07:41:57;2.20;99.90
21255;DHT22;10785;50.674;17.954;2023-04-07T07:44:26;2.20;99.90
21255;DHT22;10785;50.674;17.954;2023-04-07T07:46:58;2.30;99.90
21255;DHT22;10785;50.674;17.954;2023-04-07T07:49:27;2.30;99.90
21255;DHT22;10785;50.674;17.954;2023-04-07T07:51:55;2.30;99.90
21255;DHT22;10785;50.674;17.954;2023-04-07T07:54:26;2.30;99.90
21255;DHT22;10785;50.674;17.954;2023-04-07T07:56:57;2.30;99.90
21255;DHT22;10785;50.674;17.954;2023-04-07T07:59:27;2.20;99.90
21255;DHT22;10785;50.674;17.954;2023-04-07T08:01:55;2.30;99.90
21255;DHT22;10785;50.674;17.954;2023-04-07T08:04:24;2.40;99.90
21255;DHT22;10785;50.674;17.954;2023-04-07T08:07:00;2.40;99.90
21255;DHT22;10785;50.674;17.954;2023-04-07T08:09:29;2.50;99.90
21255;DHT22;10785;50.674;17.954;2023-04-07T08:11:59;2.50;99.90
21255;DHT22;10785;50.674;17.954;2023-04-07T08:14:29;2.40;99.90
21255;DHT22;10785;50.674;17.954;2023-04-07T08:16:58;2.50;99.90
21255;DHT22;10785;50.674;17.954;2023-04-07T08:19:27;2.50;99.90
21255;DHT22;10785;50.674;17.954;2023-04-07T08:21:56;2.50;99.90
21255;DHT22;10785;50.674;17.954;2023-04-07T08:24:27;2.50;99.90
21255;DHT22;10785;50.674;17.954;2023-04-07T08:26:55;2.40;99.90
21255;DHT22;10785;50.674;17.954;2023-04-07T08:29:24;2.50;99.90
21255;DHT22;10785;50.674;17.954;2023-04-07T08:31:55;2.50;99.90
21255;DHT22;10785;50.674;17.954;2023-04-07T08:34:24;2.50;99.90
21255;DHT22;10785;50.674;17.954;2023-04-07T08:36:53;2.50;99.90
21255;DHT22;10785;50.674;17.954;2023-04-07T08:39:26;2.60;99.90
21255;DHT22;10785;50.674;17.954;2023-04-07T08:41:56;2.60;99.90
21255;DHT22;10785;50.674;17.954;2023-04-07T08:44:27;2.70;99.90
21255;DHT22;10785;50.674;17.954;2023-04-07T08:47:06;2.70;99.90
21255;DHT22;10785;50.674;17.954;2023-04-07T08:49:40;2.80;99.90
21255;DHT22;10785;50.674;17.954;2023-04-07T08:52:14;2.80;99.90
21255;DHT22;10785;50.674;17.954;2023-04-07T08:54:48;2.80;99.90
21255;DHT22;10785;50.674;17.954;2023-04-07T08:57:20;2.70;99.90
21255;DHT22;10785;50.674;17.954;2023-04-07T08:59:49;2.80;99.90
21255;DHT22;10785;50.674;17.954;2023-04-07T09:02:22;2.80;99.90
21255;DHT22;10785;50.674;17.954;2023-04-07T09:05:15;3.00;99.90
21255;DHT22;10785;50.674;17.954;2023-04-07T09:07:50;2.90;99.90
21255;DHT22;10785;50.674;17.954;2023-04-07T09:10:19;3.00;99.90
21255;DHT22;10785;50.674;17.954;2023-04-07T09:12:56;2.80;99.90
21255;DHT22;10785;50.674;17.954;2023-04-07T09:15:32;2.80;99.90
21255;DHT22;10785;50.674;17.954;2023-04-07T09:18:14;2.90;99.90
21255;DHT22;10785;50.674;17.954;2023-04-07T09:20:57;2.90;99.90
21255;DHT22;10785;50.674;17.954;2023-04-07T09:23:36;2.90;99.90
21255;DHT22;10785;50.674;17.954;2023-04-07T09:26:27;2.90;99.90
21255;DHT22;10785;50.674;17.954;2023-04-07T09:28:59;3.00;99.90
21255;DHT22;10785;50.674;17.954;2023-04-07T09:31:44;3.00;99.90
21255;DHT22;10785;50.674;17.954;2023-04-07T09:34:30;2.90;99.90
21255;DHT22;10785;50.674;17.954;2023-04-07T09:36:59;3.00;99.90
21255;DHT22;10785;50.674;17.954;2023-04-07T09:39:28;3.00;99.90
21255;DHT22;10785;50.674;17.954;2023-04-07T09:41:57;3.00;99.90
21255;DHT22;10785;50.674;17.954;2023-04-07T09:44:27;3.00;99.90
21255;DHT22;10785;50.674;17.954;2023-04-07T09:46:56;3.00;99.90
21255;DHT22;10785;50.674;17.954;2023-04-07T09:49:25;3.10;99.90
21255;DHT22;10785;50.674;17.954;2023-04-07T09:51:57;3.00;99.90
21255;DHT22;10785;50.674;17.954;2023-04-07T09:54:32;3.00;99.90
21255;DHT22;10785;50.674;17.954;2023-04-07T09:57:17;3.00;99.90
21255;DHT22;10785;50.674;17.954;2023-04-07T09:59:46;3.10;99.90
21255;DHT22;10785;50.674;17.954;2023-04-07T10:02:18;3.10;99.90
21255;DHT22;10785;50.674;17.954;2023-04-07T10:04:49;3.10;99.90
21255;DHT22;10785;50.674;17.954;2023-04-07T10:07:19;3.10;99.90
21255;DHT22;10785;50.674;17.954;2023-04-07T10:09:47;3.20;99.90
21255;DHT22;10785;50.674;17.954;2023-04-07T10:12:17;3.20;99.90
21255;DHT22;10785;50.674;17.954;2023-04-07T10:14:46;3.20;99.90
21255;DHT22;10785;50.674;17.954;2023-04-07T10:17:17;3.20;99.90
21255;DHT22;10785;50.674;17.954;2023-04-07T10:19:48;3.10;99.90
21255;DHT22;10785;50.674;17.954;2023-04-07T10:22:19;3.10;99.90
21255;DHT22;10785;50.674;17.954;2023-04-07T10:24:53;3.10;99.90
21255;DHT22;10785;50.674;17.954;2023-04-07T10:27:28;3.20;99.90
21255;DHT22;10785;50.674;17.954;2023-04-07T10:29:58;3.20;99.90
21255;DHT22;10785;50.674;17.954;2023-04-07T10:32:29;3.30;99.90
21255;DHT22;10785;50.674;17.954;2023-04-07T10:34:58;3.20;99.90
21255;DHT22;10785;50.674;17.954;2023-04-07T10:37:28;3.20;99.90
21255;DHT22;10785;50.674;17.954;2023-04-07T10:40:27;3.20;99.90
21255;DHT22;10785;50.674;17.954;2023-04-07T10:42:57;3.30;99.90
21255;DHT22;10785;50.674;17.954;2023-04-07T10:45:50;3.40;99.90
21255;DHT22;10785;50.674;17.954;2023-04-07T10:48:20;3.40;99.90
21255;DHT22;10785;50.674;17.954;2023-04-07T10:51:14;3.30;99.90
21255;DHT22;10785;50.674;17.954;2023-04-07T10:54:19;3.30;99.90
21255;DHT22;10785;50.674;17.954;2023-04-07T10:57:07;3.40;99.90
21255;DHT22;10785;50.674;17.954;2023-04-07T11:02:31;3.50;99.90
21255;DHT22;10785;50.674;17.954;2023-04-07T11:05:01;3.40;99.90
21255;DHT22;10785;50.674;17.954;2023-04-07T11:07:49;3.70;99.90
21255;DHT22;10785;50.674;17.954;2023-04-07T11:10:20;3.70;99.90
21255;DHT22;10785;50.674;17.954;2023-04-07T11:13:04;3.70;99.90
21255;DHT22;10785;50.674;17.954;2023-04-07T11:15:34;3.70;99.90
21255;DHT22;10785;50.674;17.954;2023-04-07T11:18:12;3.80;99.90
21255;DHT22;10785;50.674;17.954;2023-04-07T11:20:43;3.80;99.90
21255;DHT22;10785;50.674;17.954;2023-04-07T11:23:13;3.80;99.90
21255;DHT22;10785;50.674;17.954;2023-04-07T11:25:45;3.80;99.90
21255;DHT22;10785;50.674;17.954;2023-04-07T11:28:14;3.90;99.90
21255;DHT22;10785;50.674;17.954;2023-04-07T11:30:47;3.90;99.90
21255;DHT22;10785;50.674;17.954;2023-04-07T11:33:19;3.80;99.90
21255;DHT22;10785;50.674;17.954;2023-04-07T11:35:50;3.90;99.90
21255;DHT22;10785;50.674;17.954;2023-04-07T11:38:19;3.90;99.90
21255;DHT22;10785;50.674;17.954;2023-04-07T11:40:49;4.00;99.90
21255;DHT22;10785;50.674;17.954;2023-04-07T11:43:19;4.00;99.90
21255;DHT22;10785;50.674;17.954;2023-04-07T11:46:06;4.00;99.90
21255;DHT22;10785;50.674;17.954;2023-04-07T11:48:36;3.90;99.90
21255;DHT22;10785;50.674;17.954;2023-04-07T11:57:35;3.90;99.90
21255;DHT22;10785;50.674;17.954;2023-04-07T12:00:08;4.00;99.90
21255;DHT22;10785;50.674;17.954;2023-04-07T12:02:37;4.10;99.90
21255;DHT22;10785;50.674;17.954;2023-04-07T12:05:07;4.10;99.90
21255;DHT22;10785;50.674;17.954;2023-04-07T12:07:37;4.10;99.90
21255;DHT22;10785;50.674;17.954;2023-04-07T12:10:19;4.10;99.90
21255;DHT22;10785;50.674;17.954;2023-04-07T12:12:50;4.10;99.90
21255;DHT22;10785;50.674;17.954;2023-04-07T12:15:20;4.10;99.90
21255;DHT22;10785;50.674;17.954;2023-04-07T12:17:49;4.00;99.90
21255;DHT22;10785;50.674;17.954;2023-04-07T12:20:17;4.00;99.90
21255;DHT22;10785;50.674;17.954;2023-04-07T12:22:46;4.10;99.90
21255;DHT22;10785;50.674;17.954;2023-04-07T12:25:14;4.10;99.90
21255;DHT22;10785;50.674;17.954;2023-04-07T12:27:43;4.10;99.90
21255;DHT22;10785;50.674;17.954;2023-04-07T12:30:13;4.20;99.90
21255;DHT22;10785;50.674;17.954;2023-04-07T12:32:42;4.20;99.90
21255;DHT22;10785;50.674;17.954;2023-04-07T12:35:11;4.20;99.90
21255;DHT22;10785;50.674;17.954;2023-04-07T12:37:39;4.20;99.90
21255;DHT22;10785;50.674;17.954;2023-04-07T12:40:08;4.20;99.90
21255;DHT22;10785;50.674;17.954;2023-04-07T12:42:38;4.10;99.90
21255;DHT22;10785;50.674;17.954;2023-04-07T12:45:08;4.10;99.90
21255;DHT22;10785;50.674;17.954;2023-04-07T12:47:38;4.20;99.90
21255;DHT22;10785;50.674;17.954;2023-04-07T12:50:07;4.20;99.90
21255;DHT22;10785;50.674;17.954;2023-04-07T12:52:37;4.10;99.90
21255;DHT22;10785;50.674;17.954;2023-04-07T12:55:12;4.20;99.90
21255;DHT22;10785;50.674;17.954;2023-04-07T12:58:04;4.20;99.90
21255;DHT22;10785;50.674;17.954;2023-04-07T13:00:34;4.20;99.90
21255;DHT22;10785;50.674;17.954;2023-04-07T13:03:30;4.20;99.90
21255;DHT22;10785;50.674;17.954;2023-04-07T13:06:22;4.20;99.90
21255;DHT22;10785;50.674;17.954;2023-04-07T13:09:22;4.20;99.90
21255;DHT22;10785;50.674;17.954;2023-04-07T13:11:51;4.30;99.90
21255;DHT22;10785;50.674;17.954;2023-04-07T13:14:22;4.20;99.90
21255;DHT22;10785;50.674;17.954;2023-04-07T13:17:04;4.20;99.90
21255;DHT22;10785;50.674;17.954;2023-04-07T13:19:35;4.20;99.90
21255;DHT22;10785;50.674;17.954;2023-04-07T13:22:11;4.10;99.90
21255;DHT22;10785;50.674;17.954;2023-04-07T13:25:02;4.10;99.90
21255;DHT22;10785;50.674;17.954;2023-04-07T13:27:31;4.10;99.90
21255;DHT22;10785;50.674;17.954;2023-04-07T13:30:00;4.10;99.90
21255;DHT22;10785;50.674;17.954;2023-04-07T13:32:29;4.10;99.90
21255;DHT22;10785;50.674;17.954;2023-04-07T13:34:59;4.10;99.90
21255;DHT22;10785;50.674;17.954;2023-04-07T13:37:29;4.10;99.90
21255;DHT22;10785;50.674;17.954;2023-04-07T13:39:57;4.00;99.90
21255;DHT22;10785;50.674;17.954;2023-04-07T13:42:26;4.00;99.90
21255;DHT22;10785;50.674;17.954;2023-04-07T13:44:55;4.00;99.90
21255;DHT22;10785;50.674;17.954;2023-04-07T13:47:23;4.00;99.90
21255;DHT22;10785;50.674;17.954;2023-04-07T13:49:52;4.00;99.90
21255;DHT22;10785;50.674;17.954;2023-04-07T13:52:23;4.10;99.90
21255;DHT22;10785;50.674;17.954;2023-04-07T13:54:51;4.10;99.90
21255;DHT22;10785;50.674;17.954;2023-04-07T13:57:20;4.10;99.90
21255;DHT22;10785;50.674;17.954;2023-04-07T13:59:50;4.10;99.90
21255;DHT22;10785;50.674;17.954;2023-04-07T14:02:19;4.10;99.90
21255;DHT22;10785;50.674;17.954;2023-04-07T14:04:49;4.20;99.90
21255;DHT22;10785;50.674;17.954;2023-04-07T14:07:17;4.10;99.90
21255;DHT22;10785;50.674;17.954;2023-04-07T14:09:47;4.20;99.90
21255;DHT22;10785;50.674;17.954;2023-04-07T14:12:16;4.20;99.90
21255;DHT22;10785;50.674;17.954;2023-04-07T14:14:47;4.20;99.90
21255;DHT22;10785;50.674;17.954;2023-04-07T14:17:18;4.10;99.90
21255;DHT22;10785;50.674;17.954;2023-04-07T14:19:47;4.10;99.90
21255;DHT22;10785;50.674;17.954;2023-04-07T14:22:15;4.10;99.90
21255;DHT22;10785;50.674;17.954;2023-04-07T14:24:44;4.20;99.90
21255;DHT22;10785;50.674;17.954;2023-04-07T14:43:18;4.20;99.90
21255;DHT22;10785;50.674;17.954;2023-04-07T14:45:47;4.20;99.90
21255;DHT22;10785;50.674;17.954;2023-04-07T14:48:15;4.10;99.90
21255;DHT22;10785;50.674;17.954;2023-04-07T14:50:44;4.10;99.90
21255;DHT22;10785;50.674;17.954;2023-04-07T14:53:22;4.10;99.90
21255;DHT22;10785;50.674;17.954;2023-04-07T14:55:51;4.20;99.90
21255;DHT22;10785;50.674;17.954;2023-04-07T14:58:21;4.10;99.90
21255;DHT22;10785;50.674;17.954;2023-04-07T15:00:49;4.10;99.90
21255;DHT22;10785;50.674;17.954;2023-04-07T15:03:18;4.10;99.90
21255;DHT22;10785;50.674;17.954;2023-04-07T15:05:47;4.20;99.90
21255;DHT22;10785;50.674;17.954;2023-04-07T15:08:16;4.10;99.90
21255;DHT22;10785;50.674;17.954;2023-04-07T15:10:45;4.10;99.90
21255;DHT22;10785;50.674;17.954;2023-04-07T15:13:13;4.10;99.90
21255;DHT22;10785;50.674;17.954;2023-04-07T15:15:43;4.10;99.90
21255;DHT22;10785;50.674;17.954;2023-04-07T15:18:15;4.20;99.90
21255;DHT22;10785;50.674;17.954;2023-04-07T15:20:44;4.10;99.90
21255;DHT22;10785;50.674;17.954;2023-04-07T15:23:12;4.20;99.90
21255;DHT22;10785;50.674;17.954;2023-04-07T15:25:42;4.20;99.90
21255;DHT22;10785;50.674;17.954;2023-04-07T15:28:11;4.20;99.90
21255;DHT22;10785;50.674;17.954;2023-04-07T15:30:39;4.20;99.90
21255;DHT22;10785;50.674;17.954;2023-04-07T15:33:10;4.20;99.90
21255;DHT22;10785;50.674;17.954;2023-04-07T15:35:40;4.20;99.90
21255;DHT22;10785;50.674;17.954;2023-04-07T15:38:09;4.20;99.90
21255;DHT22;10785;50.674;17.954;2023-04-07T15:40:40;4.30;99.90
21255;DHT22;10785;50.674;17.954;2023-04-07T15:43:09;4.20;99.90
21255;DHT22;10785;50.674;17.954;2023-04-07T15:45:39;4.30;99.90
21255;DHT22;10785;50.674;17.954;2023-04-07T15:48:20;4.30;99.90
21255;DHT22;10785;50.674;17.954;2023-04-07T15:50:49;4.30;99.90
21255;DHT22;10785;50.674;17.954;2023-04-07T15:53:18;4.30;99.90
21255;DHT22;10785;50.674;17.954;2023-04-07T15:55:47;4.30;99.90
21255;DHT22;10785;50.674;17.954;2023-04-07T15:58:15;4.30;99.90
21255;DHT22;10785;50.674;17.954;2023-04-07T16:00:44;4.30;99.90
21255;DHT22;10785;50.674;17.954;2023-04-07T16:03:12;4.30;99.90
21255;DHT22;10785;50.674;17.954;2023-04-07T16:05:43;4.30;99.90
21255;DHT22;10785;50.674;17.954;2023-04-07T16:08:11;4.30;99.90
21255;DHT22;10785;50.674;17.954;2023-04-07T16:10:40;4.30;99.90
21255;DHT22;10785;50.674;17.954;2023-04-07T16:13:08;4.30;99.90
21255;DHT22;10785;50.674;17.954;2023-04-07T16:15:37;4.30;99.90
21255;DHT22;10785;50.674;17.954;2023-04-07T16:18:09;4.30;99.90
21255;DHT22;10785;50.674;17.954;2023-04-07T16:20:38;4.30;99.90
21255;DHT22;10785;50.674;17.954;2023-04-07T16:23:08;4.30;99.90
21255;DHT22;10785;50.674;17.954;2023-04-07T16:25:37;4.30;99.90
21255;DHT22;10785;50.674;17.954;2023-04-07T16:28:06;4.30;99.90
21255;DHT22;10785;50.674;17.954;2023-04-07T16:30:34;4.30;99.90
21255;DHT22;10785;50.674;17.954;2023-04-07T16:33:03;4.30;99.90
21255;DHT22;10785;50.674;17.954;2023-04-07T16:35:32;4.30;99.90
21255;DHT22;10785;50.674;17.954;2023-04-07T16:38:00;4.20;99.90
21255;DHT22;10785;50.674;17.954;2023-04-07T16:40:32;4.30;99.90
21255;DHT22;10785;50.674;17.954;2023-04-07T16:43:01;4.30;99.90
21255;DHT22;10785;50.674;17.954;2023-04-07T16:45:29;4.30;99.90
21255;DHT22;10785;50.674;17.954;2023-04-07T16:47:58;4.30;99.90
21255;DHT22;10785;50.674;17.954;2023-04-07T16:50:27;4.30;99.90
21255;DHT22;10785;50.674;17.954;2023-04-07T16:52:55;4.30;99.90
21255;DHT22;10785;50.674;17.954;2023-04-07T16:55:24;4.30;99.90
21255;DHT22;10785;50.674;17.954;2023-04-07T16:57:57;4.30;99.90
21255;DHT22;10785;50.674;17.954;2023-04-07T17:00:26;4.30;99.90